createdAt,value
2023-01-29T00:00:09.352Z,17.68
2023-01-29T00:00:19.550Z,17.66
2023-01-29T00:00:29.354Z,17.68
2023-01-29T00:00:39.323Z,17.68
2023-01-29T00:00:49.338Z,17.68
2023-01-29T00:00:59.318Z,17.66
2023-01-29T00:01:09.335Z,17.65
2023-01-29T00:01:19.319Z,17.68
2023-01-29T00:01:29.334Z,17.68
2023-01-29T00:01:39.316Z,17.68
2023-01-29T00:01:49.368Z,17.68
2023-01-29T00:01:59.333Z,17.66
2023-01-29T00:02:09.427Z,17.66
2023-01-29T00:02:19.346Z,17.62
2023-01-29T00:02:29.324Z,17.68
2023-01-29T00:02:39.313Z,17.65
2023-01-29T00:02:49.379Z,17.68
2023-01-29T00:02:59.409Z,17.66
2023-01-29T00:03:09.355Z,17.70
2023-01-29T00:03:19.395Z,17.66
2023-01-29T00:03:29.367Z,17.65
2023-01-29T00:03:39.310Z,17.68
2023-01-29T00:03:49.333Z,17.65
2023-01-29T00:03:59.301Z,17.66
2023-01-29T00:04:09.313Z,17.66
2023-01-29T00:04:19.294Z,17.66
2023-01-29T00:04:29.332Z,17.66
2023-01-29T00:04:39.294Z,17.63
2023-01-29T00:04:49.322Z,17.65
2023-01-29T00:04:59.387Z,17.66
2023-01-29T00:05:25.929Z,17.70
2023-01-29T00:05:31.281Z,17.65
2023-01-29T00:05:35.978Z,17.65
2023-01-29T00:05:45.963Z,17.65
2023-01-29T00:05:55.963Z,17.63
2023-01-29T00:06:05.956Z,17.66
2023-01-29T00:06:15.979Z,17.66
2023-01-29T00:06:25.942Z,17.66
2023-01-29T00:06:35.958Z,17.68
2023-01-29T00:06:45.943Z,17.65
2023-01-29T00:06:55.954Z,17.68
2023-01-29T00:07:05.954Z,17.66
2023-01-29T00:07:15.977Z,17.65
2023-01-29T00:07:25.934Z,17.66
2023-01-29T00:07:35.960Z,17.68
2023-01-29T00:07:45.942Z,17.65
2023-01-29T00:07:55.986Z,17.65
2023-01-29T00:08:05.933Z,17.65
2023-01-29T00:08:15.948Z,17.65
2023-01-29T00:08:25.936Z,17.68
2023-01-29T00:08:35.970Z,17.65
2023-01-29T00:08:45.925Z,17.65
2023-01-29T00:08:55.958Z,17.66
2023-01-29T00:09:05.925Z,17.68
2023-01-29T00:09:15.940Z,17.65
2023-01-29T00:09:25.921Z,17.66
2023-01-29T00:09:35.941Z,17.66
2023-01-29T00:09:45.920Z,17.71
2023-01-29T00:09:55.937Z,17.66
2023-01-29T00:10:05.916Z,17.63
2023-01-29T00:10:16.289Z,17.65
2023-01-29T00:10:25.934Z,17.65
2023-01-29T00:10:35.928Z,17.66
2023-01-29T00:10:45.927Z,17.66
2023-01-29T00:10:55.943Z,17.66
2023-01-29T00:11:05.910Z,17.65
2023-01-29T00:11:15.943Z,17.63
2023-01-29T00:11:25.908Z,17.66
2023-01-29T00:11:35.923Z,17.66
2023-01-29T00:11:45.933Z,17.66
2023-01-29T00:11:55.945Z,17.66
2023-01-29T00:12:05.932Z,17.65
2023-01-29T00:12:15.921Z,17.66
2023-01-29T00:12:25.903Z,17.66
2023-01-29T00:12:35.935Z,17.66
2023-01-29T00:12:45.904Z,17.66
2023-01-29T00:12:55.923Z,17.65
2023-01-29T00:13:05.898Z,17.66
2023-01-29T00:13:15.911Z,17.65
2023-01-29T00:13:25.907Z,17.62
2023-01-29T00:13:35.928Z,17.65
2023-01-29T00:13:45.894Z,17.60
2023-01-29T00:13:55.912Z,17.63
2023-01-29T00:14:05.893Z,17.63
2023-01-29T00:14:15.919Z,17.65
2023-01-29T00:14:25.887Z,17.66
2023-01-29T00:14:35.942Z,17.66
2023-01-29T00:14:45.896Z,17.63
2023-01-29T00:14:55.919Z,17.63
2023-01-29T00:15:05.884Z,17.65
2023-01-29T00:15:15.917Z,17.65
2023-01-29T00:15:25.891Z,17.65
2023-01-29T00:15:35.912Z,17.65
2023-01-29T00:15:45.877Z,17.65
2023-01-29T00:15:55.912Z,17.68
2023-01-29T00:16:05.874Z,17.66
2023-01-29T00:16:15.911Z,17.63
2023-01-29T00:16:25.879Z,17.63
2023-01-29T00:16:35.946Z,17.66
2023-01-29T00:16:45.912Z,17.62
2023-01-29T00:16:55.973Z,17.66
2023-01-29T00:17:05.968Z,17.63
2023-01-29T00:17:15.987Z,17.63
2023-01-29T00:17:25.865Z,17.63
2023-01-29T00:17:35.896Z,17.63
2023-01-29T00:17:55.895Z,17.63
2023-01-29T00:18:05.864Z,17.65
2023-01-29T00:18:15.892Z,17.65
2023-01-29T00:18:25.868Z,17.65
2023-01-29T00:18:35.892Z,17.66
2023-01-29T00:18:45.854Z,17.63
2023-01-29T00:18:55.890Z,17.62
2023-01-29T00:19:05.861Z,17.63
2023-01-29T00:19:15.883Z,17.65
2023-01-29T00:19:25.859Z,17.63
2023-01-29T00:19:35.883Z,17.65
2023-01-29T00:19:45.896Z,17.63
2023-01-29T00:19:55.887Z,17.63
2023-01-29T00:24:16.352Z,17.62
2023-01-29T00:24:27.293Z,17.63
2023-01-29T00:24:37.192Z,17.65
2023-01-29T00:24:47.214Z,17.63
2023-01-29T00:24:57.194Z,17.62
2023-01-29T00:25:07.227Z,17.65
2023-01-29T00:25:17.188Z,17.62
2023-01-29T00:25:27.222Z,17.60
2023-01-29T00:25:37.207Z,17.62
2023-01-29T00:25:47.199Z,17.62
2023-01-29T00:25:57.177Z,17.66
2023-01-29T00:26:07.200Z,17.62
2023-01-29T00:26:17.178Z,17.65
2023-01-29T00:26:27.224Z,17.62
2023-01-29T00:26:37.174Z,17.66
2023-01-29T00:26:47.203Z,17.63
2023-01-29T00:26:57.167Z,17.65
2023-01-29T00:27:07.186Z,17.63
2023-01-29T00:27:17.168Z,17.63
2023-01-29T00:27:27.196Z,17.63
2023-01-29T00:27:37.167Z,17.63
2023-01-29T00:27:47.199Z,17.65
2023-01-29T00:27:57.164Z,17.65
2023-01-29T00:28:07.182Z,17.63
2023-01-29T00:28:17.161Z,17.62
2023-01-29T00:28:27.180Z,17.65
2023-01-29T00:28:37.179Z,17.63
2023-01-29T00:28:47.178Z,17.65
2023-01-29T00:28:57.176Z,17.62
2023-01-29T00:29:07.192Z,17.63
2023-01-29T00:29:17.151Z,17.62
2023-01-29T00:29:27.197Z,17.63
2023-01-29T00:29:37.164Z,17.62
2023-01-29T00:29:47.167Z,17.65
2023-01-29T00:29:57.169Z,17.63
2023-01-29T00:30:07.163Z,17.65
2023-01-29T00:30:17.559Z,17.62
2023-01-29T00:30:27.194Z,17.62
2023-01-29T00:30:37.145Z,17.62
2023-01-29T00:30:47.173Z,17.62
2023-01-29T00:30:57.213Z,17.66
2023-01-29T00:31:07.297Z,17.65
2023-01-29T00:31:17.270Z,17.63
2023-01-29T00:31:27.289Z,17.65
2023-01-29T00:31:37.265Z,17.65
2023-01-29T00:31:47.467Z,17.63
2023-01-29T00:31:57.281Z,17.62
2023-01-29T00:32:07.267Z,17.62
2023-01-29T00:32:17.279Z,17.63
2023-01-29T00:32:27.131Z,17.63
2023-01-29T00:32:37.160Z,17.60
2023-01-29T00:32:47.132Z,17.63
2023-01-29T00:32:57.144Z,17.63
2023-01-29T00:33:07.127Z,17.63
2023-01-29T00:33:17.146Z,17.60
2023-01-29T00:33:27.126Z,17.60
2023-01-29T00:33:37.145Z,17.66
2023-01-29T00:33:47.122Z,17.62
2023-01-29T00:33:57.159Z,17.63
2023-01-29T00:34:07.132Z,17.63
2023-01-29T00:34:17.136Z,17.62
2023-01-29T00:34:27.120Z,17.66
2023-01-29T00:34:37.153Z,17.63
2023-01-29T00:34:47.123Z,17.62
2023-01-29T00:34:57.153Z,17.62
2023-01-29T00:35:07.167Z,17.62
2023-01-29T00:35:17.135Z,17.63
2023-01-29T00:35:27.121Z,17.63
2023-01-29T00:35:37.165Z,17.62
2023-01-29T00:35:47.107Z,17.63
2023-01-29T00:35:57.138Z,17.62
2023-01-29T00:36:07.121Z,17.62
2023-01-29T00:36:17.138Z,17.63
2023-01-29T00:36:37.137Z,17.62
2023-01-29T00:36:47.104Z,17.63
2023-01-29T00:36:57.118Z,17.66
2023-01-29T00:37:07.097Z,17.63
2023-01-29T00:37:17.129Z,17.63
2023-01-29T00:37:27.095Z,17.62
2023-01-29T00:37:37.126Z,17.65
2023-01-29T00:37:47.099Z,17.63
2023-01-29T00:37:57.107Z,17.62
2023-01-29T00:38:07.091Z,17.62
2023-01-29T00:38:17.123Z,17.62
2023-01-29T00:38:27.091Z,17.65
2023-01-29T00:38:37.102Z,17.63
2023-01-29T00:38:47.086Z,17.60
2023-01-29T00:39:07.084Z,17.62
2023-01-29T00:39:17.114Z,17.65
2023-01-29T00:39:33.706Z,17.62
2023-01-29T00:39:48.143Z,17.60
2023-01-29T00:39:53.122Z,17.62
2023-01-29T00:40:03.143Z,17.63
2023-01-29T00:40:13.118Z,17.60
2023-01-29T00:40:23.157Z,17.63
2023-01-29T00:40:33.103Z,17.62
2023-01-29T00:40:43.121Z,17.63
2023-01-29T00:40:53.097Z,17.65
2023-01-29T00:41:03.134Z,17.65
2023-01-29T00:41:13.105Z,17.63
2023-01-29T00:41:23.113Z,17.63
2023-01-29T00:41:33.102Z,17.63
2023-01-29T00:41:43.114Z,17.65
2023-01-29T00:41:53.093Z,17.62
2023-01-29T00:42:03.164Z,17.63
2023-01-29T00:42:13.095Z,17.63
2023-01-29T00:42:23.112Z,17.62
2023-01-29T00:42:33.090Z,17.62
2023-01-29T00:42:43.121Z,17.62
2023-01-29T00:42:53.087Z,17.65
2023-01-29T00:43:03.101Z,17.60
2023-01-29T00:43:13.086Z,17.62
2023-01-29T00:43:23.103Z,17.63
2023-01-29T00:43:33.078Z,17.62
2023-01-29T00:43:43.097Z,17.60
2023-01-29T00:43:53.107Z,17.62
2023-01-29T00:44:03.097Z,17.60
2023-01-29T00:44:13.073Z,17.60
2023-01-29T00:44:23.106Z,17.63
2023-01-29T00:44:33.077Z,17.63
2023-01-29T00:44:43.089Z,17.60
2023-01-29T00:44:53.071Z,17.63
2023-01-29T00:45:03.123Z,17.62
2023-01-29T00:45:13.068Z,17.65
2023-01-29T00:45:23.099Z,17.62
2023-01-29T00:45:33.079Z,17.60
2023-01-29T00:45:43.099Z,17.62
2023-01-29T00:45:53.066Z,17.62
2023-01-29T00:46:03.095Z,17.62
2023-01-29T00:46:13.170Z,17.63
2023-01-29T00:46:23.096Z,17.63
2023-01-29T00:46:33.153Z,17.62
2023-01-29T00:46:43.186Z,17.60
2023-01-29T00:47:03.077Z,17.65
2023-01-29T00:47:13.060Z,17.63
2023-01-29T00:47:23.085Z,17.63
2023-01-29T00:47:33.056Z,17.62
2023-01-29T00:47:43.095Z,17.60
2023-01-29T00:47:53.068Z,17.62
2023-01-29T00:48:03.125Z,17.62
2023-01-29T00:48:13.050Z,17.60
2023-01-29T00:48:23.063Z,17.63
2023-01-29T00:48:33.053Z,17.62
2023-01-29T00:48:43.082Z,17.60
2023-01-29T00:48:53.046Z,17.62
2023-01-29T00:49:03.083Z,17.58
2023-01-29T00:49:13.046Z,17.60
2023-01-29T00:49:33.039Z,17.63
2023-01-29T00:49:43.072Z,17.62
2023-01-29T00:49:53.040Z,17.60
2023-01-29T00:50:03.057Z,17.63
2023-01-29T00:50:13.046Z,17.65
2023-01-29T00:50:23.056Z,17.63
2023-01-29T00:50:33.034Z,17.63
2023-01-29T00:50:43.066Z,17.63
2023-01-29T00:50:53.036Z,17.63
2023-01-29T00:51:03.065Z,17.62
2023-01-29T00:51:13.037Z,17.60
2023-01-29T00:51:23.043Z,17.62
2023-01-29T00:51:33.023Z,17.63
2023-01-29T00:51:43.070Z,17.63
2023-01-29T00:51:53.021Z,17.60
2023-01-29T00:52:03.041Z,17.62
2023-01-29T00:52:13.033Z,17.58
2023-01-29T00:52:23.036Z,17.62
2023-01-29T00:52:33.021Z,17.60
2023-01-29T00:52:43.059Z,17.62
2023-01-29T00:52:53.046Z,17.60
2023-01-29T00:53:03.044Z,17.62
2023-01-29T00:53:13.050Z,17.60
2023-01-29T00:53:23.032Z,17.60
2023-01-29T00:53:33.015Z,17.62
2023-01-29T00:53:43.026Z,17.62
2023-01-29T00:53:53.010Z,17.62
2023-01-29T00:54:03.025Z,17.62
2023-01-29T00:54:13.018Z,17.62
2023-01-29T00:54:23.019Z,17.60
2023-01-29T00:54:33.295Z,17.63
2023-01-29T00:54:43.043Z,17.58
2023-01-29T00:54:53.002Z,17.60
2023-01-29T00:55:03.032Z,17.63
2023-01-29T00:55:13.004Z,17.58
2023-01-29T00:55:23.014Z,17.63
2023-01-29T00:55:32.999Z,17.58
2023-01-29T00:55:43.032Z,17.60
2023-01-29T00:55:52.992Z,17.62
2023-01-29T00:56:03.013Z,17.63
2023-01-29T00:56:12.992Z,17.62
2023-01-29T00:56:23.024Z,17.60
2023-01-29T00:56:32.988Z,17.62
2023-01-29T00:56:43.027Z,17.60
2023-01-29T00:56:52.998Z,17.62
2023-01-29T00:57:03.014Z,17.62
2023-01-29T00:57:12.984Z,17.57
2023-01-29T00:57:23.018Z,17.62
2023-01-29T00:57:32.996Z,17.60
2023-01-29T00:57:43.005Z,17.62
2023-01-29T00:57:52.982Z,17.62
2023-01-29T00:58:03.001Z,17.63
2023-01-29T00:58:12.981Z,17.60
2023-01-29T00:58:23.026Z,17.58
2023-01-29T00:58:32.976Z,17.60
2023-01-29T00:58:42.995Z,17.58
2023-01-29T00:58:52.972Z,17.58
2023-01-29T00:59:02.989Z,17.63
2023-01-29T00:59:12.971Z,17.62
2023-01-29T00:59:22.986Z,17.60
2023-01-29T00:59:43.012Z,17.60
2023-01-29T00:59:52.971Z,17.63
2023-01-29T01:00:02.980Z,17.57
2023-01-29T01:00:12.967Z,17.60
2023-01-29T01:00:23.003Z,17.62
2023-01-29T01:00:32.981Z,17.62
2023-01-29T01:00:43.057Z,17.58
2023-01-29T01:00:52.997Z,17.63
2023-01-29T01:01:03.019Z,17.60
2023-01-29T01:01:13.004Z,17.60
2023-01-29T01:01:22.993Z,17.60
2023-01-29T01:01:32.960Z,17.62
2023-01-29T01:01:43.043Z,17.62
2023-01-29T01:01:53.024Z,17.60
2023-01-29T01:02:03.042Z,17.60
2023-01-29T01:02:12.986Z,17.65
2023-01-29T01:02:23.112Z,17.62
2023-01-29T01:02:32.946Z,17.60
2023-01-29T01:02:42.991Z,17.60
2023-01-29T01:02:52.955Z,17.60
2023-01-29T01:03:02.983Z,17.62
2023-01-29T01:03:12.946Z,17.62
2023-01-29T01:03:22.961Z,17.60
2023-01-29T01:03:32.944Z,17.60
2023-01-29T01:03:42.969Z,17.60
2023-01-29T01:03:52.942Z,17.62
2023-01-29T01:04:02.977Z,17.62
2023-01-29T01:04:12.934Z,17.62
2023-01-29T01:04:22.967Z,17.62
2023-01-29T01:04:35.001Z,17.62
2023-01-29T01:04:52.972Z,17.63
2023-01-29T01:05:02.952Z,17.58
2023-01-29T01:05:12.928Z,17.63
2023-01-29T01:05:22.951Z,17.60
2023-01-29T01:05:32.940Z,17.58
2023-01-29T01:05:42.979Z,17.62
2023-01-29T01:05:52.925Z,17.60
2023-01-29T01:06:02.953Z,17.63
2023-01-29T01:06:12.929Z,17.62
2023-01-29T01:06:22.937Z,17.58
2023-01-29T01:06:32.926Z,17.62
2023-01-29T01:06:42.955Z,17.62
2023-01-29T01:06:52.919Z,17.58
2023-01-29T01:07:02.949Z,17.63
2023-01-29T01:07:17.329Z,17.57
2023-01-29T01:07:22.916Z,17.60
2023-01-29T01:07:32.945Z,17.60
2023-01-29T01:07:42.912Z,17.62
2023-01-29T01:07:52.949Z,17.58
2023-01-29T01:08:02.908Z,17.62
2023-01-29T01:08:12.926Z,17.62
2023-01-29T01:08:22.907Z,17.60
2023-01-29T01:08:32.938Z,17.62
2023-01-29T01:08:42.904Z,17.60
2023-01-29T01:08:52.921Z,17.62
2023-01-29T01:09:02.901Z,17.60
2023-01-29T01:09:12.917Z,17.60
2023-01-29T01:09:22.898Z,17.58
2023-01-29T01:09:32.922Z,17.58
2023-01-29T01:09:42.894Z,17.62
2023-01-29T01:09:52.914Z,17.58
2023-01-29T01:10:02.900Z,17.62
2023-01-29T01:10:12.914Z,17.60
2023-01-29T01:10:22.923Z,17.60
2023-01-29T01:10:32.905Z,17.62
2023-01-29T01:10:42.890Z,17.62
2023-01-29T01:10:52.905Z,17.60
2023-01-29T01:11:02.890Z,17.60
2023-01-29T01:11:12.909Z,17.60
2023-01-29T01:11:22.887Z,17.60
2023-01-29T01:11:32.915Z,17.57
2023-01-29T01:11:42.882Z,17.60
2023-01-29T01:11:52.901Z,17.62
2023-01-29T01:12:02.894Z,17.58
2023-01-29T01:12:12.909Z,17.60
2023-01-29T01:12:22.899Z,17.65
2023-01-29T01:12:32.933Z,17.60
2023-01-29T01:12:42.875Z,17.62
2023-01-29T01:12:52.905Z,17.58
2023-01-29T01:13:02.876Z,17.60
2023-01-29T01:13:12.885Z,17.60
2023-01-29T01:13:22.877Z,17.62
2023-01-29T01:13:32.895Z,17.60
2023-01-29T01:13:42.869Z,17.60
2023-01-29T01:13:52.883Z,17.62
2023-01-29T01:14:02.868Z,17.60
2023-01-29T01:14:12.881Z,17.60
2023-01-29T01:14:22.867Z,17.60
2023-01-29T01:14:32.880Z,17.57
2023-01-29T01:14:42.879Z,17.58
2023-01-29T01:14:52.862Z,17.58
2023-01-29T01:15:02.877Z,17.58
2023-01-29T01:15:12.863Z,17.58
2023-01-29T01:15:22.891Z,17.60
2023-01-29T01:15:32.854Z,17.58
2023-01-29T01:15:42.872Z,17.58
2023-01-29T01:15:52.940Z,17.58
2023-01-29T01:16:02.947Z,17.58
2023-01-29T01:16:12.902Z,17.60
2023-01-29T01:16:23.000Z,17.58
2023-01-29T01:16:32.901Z,17.58
2023-01-29T01:16:42.860Z,17.60
2023-01-29T01:16:52.858Z,17.58
2023-01-29T01:17:02.862Z,17.55
2023-01-29T01:17:12.845Z,17.57
2023-01-29T01:17:22.863Z,17.57
2023-01-29T01:17:32.847Z,17.58
2023-01-29T01:17:42.885Z,17.63
2023-01-29T01:17:52.839Z,17.62
2023-01-29T01:18:02.856Z,17.60
2023-01-29T01:18:12.840Z,17.58
2023-01-29T01:18:22.852Z,17.60
2023-01-29T01:18:32.837Z,17.58
2023-01-29T01:18:42.880Z,17.58
2023-01-29T01:18:52.831Z,17.58
2023-01-29T01:19:02.853Z,17.55
2023-01-29T01:19:12.830Z,17.57
2023-01-29T01:19:22.845Z,17.58
2023-01-29T01:19:32.825Z,17.58
2023-01-29T01:19:42.842Z,17.58
2023-01-29T01:19:52.827Z,17.60
2023-01-29T01:20:02.859Z,17.57
2023-01-29T01:20:12.824Z,17.58
2023-01-29T01:20:22.854Z,17.58
2023-01-29T01:20:32.822Z,17.58
2023-01-29T01:20:42.850Z,17.58
2023-01-29T01:20:52.817Z,17.57
2023-01-29T01:21:02.850Z,17.60
2023-01-29T01:21:12.815Z,17.58
2023-01-29T01:21:22.832Z,17.58
2023-01-29T01:21:32.811Z,17.60
2023-01-29T01:21:42.826Z,17.60
2023-01-29T01:21:52.812Z,17.57
2023-01-29T01:22:02.825Z,17.58
2023-01-29T01:22:12.816Z,17.62
2023-01-29T01:22:22.840Z,17.58
2023-01-29T01:22:32.810Z,17.55
2023-01-29T01:22:42.842Z,17.58
2023-01-29T01:22:52.804Z,17.60
2023-01-29T01:23:02.817Z,17.60
2023-01-29T01:23:12.802Z,17.58
2023-01-29T01:23:22.834Z,17.62
2023-01-29T01:23:32.801Z,17.58
2023-01-29T01:23:42.831Z,17.60
2023-01-29T01:23:52.827Z,17.60
2023-01-29T01:24:02.886Z,17.60
2023-01-29T01:24:12.824Z,17.57
2023-01-29T01:24:22.835Z,17.58
2023-01-29T01:24:32.855Z,17.57
2023-01-29T01:24:52.808Z,17.57
2023-01-29T01:25:02.806Z,17.60
2023-01-29T01:25:12.792Z,17.58
2023-01-29T01:25:22.828Z,17.58
2023-01-29T01:25:32.787Z,17.60
2023-01-29T01:25:42.806Z,17.58
2023-01-29T01:25:52.783Z,17.57
2023-01-29T01:26:02.800Z,17.58
2023-01-29T01:26:12.783Z,17.58
2023-01-29T01:26:22.814Z,17.58
2023-01-29T01:26:32.783Z,17.57
2023-01-29T01:26:42.808Z,17.57
2023-01-29T01:26:52.777Z,17.58
2023-01-29T01:27:02.789Z,17.57
2023-01-29T01:27:22.809Z,17.58
2023-01-29T01:27:32.769Z,17.62
2023-01-29T01:27:42.787Z,17.58
2023-01-29T01:27:52.769Z,17.58
2023-01-29T01:28:03.661Z,17.57
2023-01-29T01:28:12.767Z,17.57
2023-01-29T01:28:22.797Z,17.60
2023-01-29T01:28:32.783Z,17.62
2023-01-29T01:28:42.781Z,17.57
2023-01-29T01:28:52.779Z,17.60
2023-01-29T01:29:02.780Z,17.58
2023-01-29T01:29:12.758Z,17.58
2023-01-29T01:29:22.797Z,17.55
2023-01-29T01:29:32.757Z,17.57
2023-01-29T01:29:42.787Z,17.58
2023-01-29T01:29:52.753Z,17.58
2023-01-29T01:30:02.778Z,17.60
2023-01-29T01:30:12.749Z,17.60
2023-01-29T01:30:22.788Z,17.57
2023-01-29T01:30:32.749Z,17.57
2023-01-29T01:30:42.813Z,17.60
2023-01-29T01:30:52.761Z,17.60
2023-01-29T01:31:02.800Z,17.58
2023-01-29T01:31:12.886Z,17.58
2023-01-29T01:31:23.016Z,17.60
2023-01-29T01:31:32.860Z,17.60
2023-01-29T01:31:42.846Z,17.60
2023-01-29T01:31:52.803Z,17.57
2023-01-29T01:32:02.857Z,17.58
2023-01-29T01:32:12.739Z,17.58
2023-01-29T01:32:22.769Z,17.57
2023-01-29T01:32:32.744Z,17.57
2023-01-29T01:32:42.766Z,17.58
2023-01-29T01:32:52.752Z,17.60
2023-01-29T01:33:02.769Z,17.57
2023-01-29T01:33:12.731Z,17.57
2023-01-29T01:33:22.747Z,17.57
2023-01-29T01:33:32.730Z,17.57
2023-01-29T01:33:42.740Z,17.55
2023-01-29T01:33:52.727Z,17.57
2023-01-29T01:34:02.817Z,17.57
2023-01-29T01:34:12.725Z,17.55
2023-01-29T01:34:22.741Z,17.57
2023-01-29T01:34:32.719Z,17.55
2023-01-29T01:34:42.750Z,17.58
2023-01-29T01:34:52.719Z,17.62
2023-01-29T01:35:02.745Z,17.58
2023-01-29T01:35:12.716Z,17.57
2023-01-29T01:35:22.772Z,17.57
2023-01-29T01:35:32.727Z,17.60
2023-01-29T01:35:42.729Z,17.55
2023-01-29T01:35:52.717Z,17.57
2023-01-29T01:36:02.765Z,17.57
2023-01-29T01:36:12.707Z,17.58
2023-01-29T01:36:22.739Z,17.60
2023-01-29T01:36:32.707Z,17.58
2023-01-29T01:36:42.741Z,17.58
2023-01-29T01:36:59.656Z,17.57
2023-01-29T01:37:04.380Z,17.57
2023-01-29T01:37:14.312Z,17.55
2023-01-29T01:37:24.333Z,17.58
2023-01-29T01:37:34.313Z,17.60
2023-01-29T01:37:44.328Z,17.58
2023-01-29T01:37:54.319Z,17.57
2023-01-29T01:38:04.343Z,17.58
2023-01-29T01:38:14.314Z,17.57
2023-01-29T01:38:24.342Z,17.58
2023-01-29T01:38:34.303Z,17.57
2023-01-29T01:38:44.337Z,17.58
2023-01-29T01:38:54.304Z,17.58
2023-01-29T01:39:04.344Z,17.58
2023-01-29T01:39:14.301Z,17.57
2023-01-29T01:39:24.321Z,17.58
2023-01-29T01:39:34.304Z,17.57
2023-01-29T01:39:44.355Z,17.58
2023-01-29T01:39:54.294Z,17.55
2023-01-29T01:40:04.327Z,17.55
2023-01-29T01:40:14.571Z,17.60
2023-01-29T01:40:24.324Z,17.55
2023-01-29T01:40:34.292Z,17.58
2023-01-29T01:40:44.305Z,17.57
2023-01-29T01:40:54.290Z,17.57
2023-01-29T01:41:04.308Z,17.57
2023-01-29T01:41:14.287Z,17.54
2023-01-29T01:41:24.299Z,17.58
2023-01-29T01:41:34.284Z,17.57
2023-01-29T01:41:44.298Z,17.60
2023-01-29T01:42:04.297Z,17.58
2023-01-29T01:42:14.283Z,17.57
2023-01-29T01:42:24.311Z,17.58
2023-01-29T01:42:34.283Z,17.57
2023-01-29T01:42:44.298Z,17.58
2023-01-29T01:42:54.283Z,17.57
2023-01-29T01:43:04.289Z,17.60
2023-01-29T01:43:14.273Z,17.57
2023-01-29T01:43:24.295Z,17.55
2023-01-29T01:43:34.271Z,17.55
2023-01-29T01:43:44.285Z,17.57
2023-01-29T01:43:54.273Z,17.57
2023-01-29T01:44:04.316Z,17.58
2023-01-29T01:44:14.276Z,17.58
2023-01-29T01:44:24.298Z,17.58
2023-01-29T01:44:34.279Z,17.55
2023-01-29T01:44:44.299Z,17.54
2023-01-29T01:44:54.262Z,17.58
2023-01-29T01:45:04.298Z,17.54
2023-01-29T01:45:14.259Z,17.57
2023-01-29T01:45:24.303Z,17.58
2023-01-29T01:45:34.354Z,17.57
2023-01-29T01:45:44.351Z,17.54
2023-01-29T01:45:54.333Z,17.55
2023-01-29T01:46:04.361Z,17.55
2023-01-29T01:46:14.290Z,17.54
2023-01-29T01:46:24.272Z,17.57
2023-01-29T01:46:34.259Z,17.53
2023-01-29T01:46:44.292Z,17.54
2023-01-29T01:46:54.248Z,17.58
2023-01-29T01:47:04.276Z,17.55
2023-01-29T01:47:14.248Z,17.57
2023-01-29T01:47:24.263Z,17.57
2023-01-29T01:47:34.249Z,17.57
2023-01-29T01:47:44.256Z,17.55
2023-01-29T01:47:54.247Z,17.55
2023-01-29T01:48:04.284Z,17.55
2023-01-29T01:48:14.238Z,17.58
2023-01-29T01:48:24.251Z,17.58
2023-01-29T01:48:34.237Z,17.55
2023-01-29T01:48:44.250Z,17.58
2023-01-29T01:48:54.237Z,17.57
2023-01-29T01:49:04.254Z,17.57
2023-01-29T01:49:14.231Z,17.58
2023-01-29T01:49:24.261Z,17.58
2023-01-29T01:49:34.229Z,17.57
2023-01-29T01:49:44.275Z,17.57
2023-01-29T01:49:54.232Z,17.57
2023-01-29T01:50:04.256Z,17.54
2023-01-29T01:50:14.743Z,17.55
2023-01-29T01:50:24.252Z,17.54
2023-01-29T01:50:34.219Z,17.55
2023-01-29T01:50:44.239Z,17.57
2023-01-29T01:50:54.219Z,17.57
2023-01-29T01:51:04.261Z,17.55
2023-01-29T01:51:14.217Z,17.55
2023-01-29T01:51:24.251Z,17.54
2023-01-29T01:51:34.216Z,17.54
2023-01-29T01:51:44.248Z,17.58
2023-01-29T01:51:54.215Z,17.57
2023-01-29T01:52:04.244Z,17.55
2023-01-29T01:52:14.214Z,17.60
2023-01-29T01:52:24.251Z,17.54
2023-01-29T01:52:34.207Z,17.54
2023-01-29T01:52:44.239Z,17.55
2023-01-29T01:52:54.222Z,17.58
2023-01-29T01:53:04.241Z,17.58
2023-01-29T01:53:14.201Z,17.55
2023-01-29T01:53:24.233Z,17.55
2023-01-29T01:53:34.204Z,17.57
2023-01-29T01:53:44.234Z,17.54
2023-01-29T01:53:54.210Z,17.57
2023-01-29T01:54:04.214Z,17.54
2023-01-29T01:54:14.197Z,17.54
2023-01-29T01:54:24.239Z,17.55
2023-01-29T01:54:34.192Z,17.54
2023-01-29T01:54:44.245Z,17.57
2023-01-29T01:54:54.188Z,17.54
2023-01-29T01:55:04.206Z,17.58
2023-01-29T01:55:14.219Z,17.57
2023-01-29T01:55:24.218Z,17.57
2023-01-29T01:55:34.208Z,17.57
2023-01-29T01:55:44.226Z,17.54
2023-01-29T01:55:54.183Z,17.57
2023-01-29T01:56:04.221Z,17.57
2023-01-29T01:56:14.223Z,17.55
2023-01-29T01:56:24.209Z,17.57
2023-01-29T01:56:34.185Z,17.54
2023-01-29T01:56:44.198Z,17.57
2023-01-29T01:56:54.176Z,17.55
2023-01-29T01:57:04.206Z,17.55
2023-01-29T01:57:14.174Z,17.55
2023-01-29T01:57:24.174Z,17.55
2023-01-29T01:57:34.211Z,17.54
2023-01-29T01:57:44.168Z,17.57
2023-01-29T01:57:54.207Z,17.55
2023-01-29T01:58:04.173Z,17.57
2023-01-29T01:58:14.182Z,17.55
2023-01-29T01:58:24.164Z,17.53
2023-01-29T01:58:34.195Z,17.55
2023-01-29T01:58:44.181Z,17.55
2023-01-29T01:58:54.200Z,17.58
2023-01-29T01:59:04.160Z,17.57
2023-01-29T01:59:14.194Z,17.55
2023-01-29T01:59:24.158Z,17.55
2023-01-29T01:59:34.198Z,17.57
2023-01-29T01:59:44.159Z,17.55
2023-01-29T01:59:54.170Z,17.57
2023-01-29T02:00:04.158Z,17.55
2023-01-29T02:00:14.435Z,17.57
2023-01-29T02:00:24.170Z,17.55
2023-01-29T02:00:34.184Z,17.57
2023-01-29T02:00:44.198Z,17.57
2023-01-29T02:00:54.184Z,17.55
2023-01-29T02:01:04.252Z,17.55
2023-01-29T02:01:14.193Z,17.58
2023-01-29T02:01:25.774Z,17.54
2023-01-29T02:01:34.181Z,17.57
2023-01-29T02:01:44.167Z,17.55
2023-01-29T02:01:54.228Z,17.55
2023-01-29T02:02:04.179Z,17.55
2023-01-29T02:02:14.195Z,17.58
2023-01-29T02:02:24.226Z,17.55
2023-01-29T02:02:34.181Z,17.54
2023-01-29T02:02:44.142Z,17.55
2023-01-29T02:02:54.149Z,17.58
2023-01-29T02:03:04.133Z,17.54
2023-01-29T02:03:14.148Z,17.57
2023-01-29T02:03:24.130Z,17.55
2023-01-29T02:03:34.163Z,17.53
2023-01-29T02:03:44.128Z,17.58
2023-01-29T02:03:54.163Z,17.57
2023-01-29T02:04:04.122Z,17.58
2023-01-29T02:04:14.151Z,17.58
2023-01-29T02:04:24.122Z,17.57
2023-01-29T02:04:34.139Z,17.55
2023-01-29T02:04:44.122Z,17.57
2023-01-29T02:04:54.155Z,17.55
2023-01-29T02:05:04.121Z,17.60
2023-01-29T02:05:14.149Z,17.58
2023-01-29T02:05:24.133Z,17.53
2023-01-29T02:05:34.130Z,17.58
2023-01-29T02:05:44.113Z,17.60
2023-01-29T02:05:54.128Z,17.57
2023-01-29T02:06:04.173Z,17.57
2023-01-29T02:06:14.128Z,17.54
2023-01-29T02:06:24.111Z,17.57
2023-01-29T02:06:34.145Z,17.55
2023-01-29T02:06:44.116Z,17.53
2023-01-29T02:06:54.131Z,17.55
2023-01-29T02:07:04.105Z,17.57
2023-01-29T02:07:14.545Z,17.55
2023-01-29T02:07:24.099Z,17.55
2023-01-29T02:07:34.116Z,17.57
2023-01-29T02:07:44.099Z,17.54
2023-01-29T02:07:54.115Z,17.55
2023-01-29T02:08:04.100Z,17.57
2023-01-29T02:08:14.126Z,17.55
2023-01-29T02:08:24.099Z,17.55
2023-01-29T02:08:34.115Z,17.54
2023-01-29T02:08:44.092Z,17.55
2023-01-29T02:08:54.109Z,17.54
2023-01-29T02:09:04.099Z,17.55
2023-01-29T02:09:14.138Z,17.54
2023-01-29T02:09:24.085Z,17.57
2023-01-29T02:09:34.107Z,17.57
2023-01-29T02:09:44.085Z,17.57
2023-01-29T02:09:54.109Z,17.54
2023-01-29T02:10:04.086Z,17.55
2023-01-29T02:10:14.442Z,17.55
2023-01-29T02:10:24.095Z,17.54
2023-01-29T02:10:34.100Z,17.55
2023-01-29T02:10:44.091Z,17.57
2023-01-29T02:10:54.095Z,17.57
2023-01-29T02:11:04.085Z,17.53
2023-01-29T02:11:14.112Z,17.57
2023-01-29T02:11:24.075Z,17.57
2023-01-29T02:11:34.102Z,17.58
2023-01-29T02:11:44.071Z,17.54
2023-01-29T02:11:54.087Z,17.57
2023-01-29T02:12:04.088Z,17.57
2023-01-29T02:12:14.106Z,17.55
2023-01-29T02:12:24.085Z,17.57
2023-01-29T02:12:34.080Z,17.54
2023-01-29T02:12:44.063Z,17.54
2023-01-29T02:12:54.077Z,17.55
2023-01-29T02:13:04.070Z,17.57
2023-01-29T02:13:14.079Z,17.58
2023-01-29T02:13:24.058Z,17.55
2023-01-29T02:13:34.076Z,17.54
2023-01-29T02:13:44.057Z,17.54
2023-01-29T02:13:54.074Z,17.57
2023-01-29T02:14:04.082Z,17.55
2023-01-29T02:14:14.104Z,17.55
2023-01-29T02:14:24.052Z,17.57
2023-01-29T02:14:34.071Z,17.54
2023-01-29T02:14:44.053Z,17.54
2023-01-29T02:14:54.082Z,17.54